createdAt,value
2022-10-28T06:40:17.825Z,100400.56
2022-10-28T06:42:44.247Z,100403.69
2022-10-28T06:45:10.640Z,100399.69
2022-10-28T06:47:41.410Z,100402.09
2022-10-28T06:50:08.614Z,100398.31
2022-10-28T06:52:35.206Z,100400.63
2022-10-28T06:55:01.651Z,100408.25
2022-10-28T06:57:29.262Z,100411.41
2022-10-28T06:59:55.907Z,100419.41
2022-10-28T07:02:22.359Z,100417.44
2022-10-28T07:04:49.114Z,100417.22
2022-10-28T07:07:15.560Z,100419.00
2022-10-28T07:09:43.560Z,100418.03
2022-10-28T07:12:09.978Z,100414.28
2022-10-28T07:14:36.378Z,100421.06
2022-10-28T07:17:02.803Z,100414.38
2022-10-28T07:19:29.232Z,100412.91
2022-10-28T07:21:55.791Z,100409.72
2022-10-28T07:24:22.256Z,100410.16
2022-10-28T07:26:53.112Z,100412.34
2022-10-28T07:29:21.971Z,100418.00
2022-10-28T07:31:48.405Z,100421.19
2022-10-28T07:34:14.864Z,100422.63
2022-10-28T07:36:41.259Z,100427.69
2022-10-28T07:39:07.634Z,100430.00
2022-10-28T07:41:34.054Z,100435.19
2022-10-28T07:44:00.534Z,100446.59
2022-10-28T07:46:27.614Z,100444.19
2022-10-28T07:48:54.115Z,100443.47
2022-10-28T07:51:20.584Z,100446.97
2022-10-28T07:53:47.000Z,100455.97
2022-10-28T07:56:13.654Z,100468.72
2022-10-28T07:58:41.225Z,100452.00
2022-10-28T08:01:09.245Z,100453.78
2022-10-28T08:03:39.049Z,100459.03
2022-10-28T08:06:11.375Z,100465.34
2022-10-28T08:08:38.234Z,100468.97
2022-10-28T08:11:18.934Z,100465.47
2022-10-28T08:13:46.110Z,100467.16
2022-10-28T08:16:12.726Z,100473.09
2022-10-28T08:18:40.454Z,100466.03
2022-10-28T08:21:08.951Z,100460.34
2022-10-28T08:23:35.772Z,100473.56
2022-10-28T08:26:02.339Z,100460.06
2022-10-28T08:28:28.758Z,100448.19
2022-10-28T08:31:10.303Z,100446.19
2022-10-28T08:33:46.880Z,100437.69
2022-10-28T08:36:15.154Z,100439.84
2022-10-28T08:38:46.216Z,100437.63
2022-10-28T08:41:48.336Z,100448.63
2022-10-28T08:44:30.784Z,100451.03
2022-10-28T08:47:14.042Z,100448.25
2022-10-28T08:49:43.419Z,100452.06
2022-10-28T08:52:35.068Z,100449.00
2022-10-28T08:55:05.475Z,100439.50
2022-10-28T08:57:38.122Z,100441.75
2022-10-28T09:00:26.720Z,100432.09
2022-10-28T09:03:12.758Z,100432.28
2022-10-28T09:05:40.454Z,100434.53
2022-10-28T09:08:18.221Z,100431.31
2022-10-28T09:11:03.324Z,100443.91
2022-10-28T09:13:57.538Z,100444.50
2022-10-28T09:16:39.732Z,100447.47
2022-10-28T09:19:49.421Z,100450.72
2022-10-28T09:22:29.176Z,100450.47
2022-10-28T09:25:23.265Z,100446.66
2022-10-28T09:28:51.544Z,100455.38
2022-10-28T09:31:20.620Z,100455.28
2022-10-28T09:33:54.132Z,100450.75
2022-10-28T09:36:34.308Z,100434.84
2022-10-28T09:39:01.554Z,100449.19
2022-10-28T09:41:32.018Z,100442.69
2022-10-28T09:44:07.335Z,100439.31
2022-10-28T09:46:37.076Z,100432.00
2022-10-28T09:49:06.487Z,100440.75
2022-10-28T09:51:43.281Z,100438.91
2022-10-28T09:54:11.265Z,100437.91
2022-10-28T09:56:38.184Z,100434.28
2022-10-28T09:59:04.970Z,100449.34
2022-10-28T10:01:34.100Z,100448.22
2022-10-28T10:04:01.254Z,100452.59
2022-10-28T10:06:33.027Z,100452.47
2022-10-28T10:09:00.111Z,100453.16
2022-10-28T10:11:28.686Z,100462.03
2022-10-28T10:13:55.436Z,100461.16
2022-10-28T10:16:32.611Z,100456.41
2022-10-28T10:19:01.140Z,100458.81
2022-10-28T10:21:48.453Z,100448.13
2022-10-28T10:24:22.322Z,100455.84
2022-10-28T10:26:48.815Z,100447.28
2022-10-28T10:29:15.211Z,100449.41
2022-10-28T10:31:41.823Z,100448.00
2022-10-28T10:34:22.280Z,100453.09
2022-10-28T10:36:50.242Z,100448.03
2022-10-28T10:39:27.207Z,100445.78
2022-10-28T10:41:55.440Z,100436.31
2022-10-28T10:44:21.939Z,100434.06
2022-10-28T10:47:08.358Z,100435.50
2022-10-28T10:49:35.576Z,100428.41
2022-10-28T10:52:07.977Z,100432.41
2022-10-28T10:54:36.153Z,100426.50
2022-10-28T10:57:09.837Z,100422.38
2022-10-28T10:59:37.721Z,100415.63
2022-10-28T11:02:19.589Z,100416.72
2022-10-28T11:04:55.497Z,100411.50
2022-10-28T11:07:22.390Z,100409.63
2022-10-28T11:09:50.339Z,100402.91
2022-10-28T11:12:31.931Z,100401.84
2022-10-28T11:15:09.077Z,100392.09
2022-10-28T11:17:35.492Z,100390.19
2022-10-28T11:20:34.707Z,100377.59
2022-10-28T11:23:12.411Z,100383.75
2022-10-28T11:25:44.175Z,100371.66
2022-10-28T11:28:33.314Z,100372.66
2022-10-28T11:31:18.058Z,100375.16
2022-10-28T11:34:13.321Z,100383.47
2022-10-28T11:36:45.716Z,100367.25
2022-10-28T11:39:27.659Z,100374.50
2022-10-28T11:42:21.846Z,100362.75
2022-10-28T11:45:17.299Z,100361.78
2022-10-28T11:47:53.049Z,100353.59
2022-10-28T11:50:44.325Z,100363.44
2022-10-28T11:53:26.298Z,100355.59
2022-10-28T11:56:03.637Z,100342.19
2022-10-28T11:58:48.750Z,100352.13
2022-10-28T12:01:24.133Z,100339.34
2022-10-28T12:04:02.306Z,100343.41
2022-10-28T12:06:32.392Z,100345.09
2022-10-28T12:09:21.126Z,100342.00
2022-10-28T12:12:24.990Z,100337.97
2022-10-28T12:15:19.141Z,100337.78
2022-10-28T12:18:11.918Z,100330.72
2022-10-28T12:20:55.085Z,100320.59
2022-10-28T12:23:23.692Z,100318.59
2022-10-28T12:25:54.715Z,100313.19
2022-10-28T12:28:26.851Z,100313.34
2022-10-28T12:30:53.788Z,100320.06
2022-10-28T12:33:36.826Z,100319.41
2022-10-28T12:36:09.906Z,100327.13
2022-10-28T12:38:42.037Z,100322.44
2022-10-28T12:41:18.683Z,100310.28
2022-10-28T12:44:02.055Z,100309.41
2022-10-28T12:49:45.641Z,100303.28
2022-10-28T12:52:31.263Z,100310.00
2022-10-28T12:57:44.509Z,100306.84
2022-10-28T13:00:16.125Z,100309.22
2022-10-28T13:03:05.665Z,100300.66
2022-10-28T13:05:39.967Z,100302.50
2022-10-28T13:08:37.067Z,100297.09
2022-10-28T13:11:15.490Z,100303.16
2022-10-28T13:13:53.156Z,100295.56
2022-10-28T13:17:16.310Z,100299.44
2022-10-28T13:19:57.522Z,100299.97
2022-10-28T13:22:35.689Z,100296.91
2022-10-28T13:25:09.458Z,100300.81
2022-10-28T13:30:16.642Z,100301.31
2022-10-28T13:32:43.246Z,100305.69
2022-10-28T13:35:16.064Z,100302.81
2022-10-28T13:37:46.150Z,100304.88
2022-10-28T13:40:30.594Z,100295.28
2022-10-28T13:42:58.531Z,100291.72
2022-10-28T13:45:52.011Z,100294.97
2022-10-28T13:48:30.428Z,100296.66
2022-10-28T13:51:08.808Z,100299.50
2022-10-28T13:53:39.023Z,100302.03
2022-10-28T13:56:16.317Z,100303.75
2022-10-28T13:58:50.622Z,100296.00
2022-10-28T14:02:01.954Z,100301.91
2022-10-28T14:04:38.784Z,100295.19
2022-10-28T14:07:11.275Z,100296.84
2022-10-28T14:09:41.166Z,100291.31
2022-10-28T14:12:17.273Z,100300.72
2022-10-28T14:14:52.319Z,100302.59
2022-10-28T14:17:24.572Z,100298.03
2022-10-28T14:19:51.894Z,100303.59
2022-10-28T14:22:33.366Z,100301.25
2022-10-28T14:25:00.112Z,100310.34
2022-10-28T14:27:27.543Z,100321.13
2022-10-28T14:29:56.884Z,100326.88
2022-10-28T14:32:35.470Z,100323.34
2022-10-28T14:35:12.754Z,100324.84
2022-10-28T14:37:51.205Z,100325.38
2022-10-28T14:40:43.627Z,100327.22
2022-10-28T14:43:22.936Z,100332.09
2022-10-28T14:46:11.802Z,100327.41
2022-10-28T14:48:51.341Z,100322.69
2022-10-28T14:51:20.443Z,100314.91
2022-10-28T14:53:46.850Z,100314.63
2022-10-28T14:56:29.421Z,100312.56
2022-10-28T14:59:21.675Z,100304.66
2022-10-28T15:02:00.469Z,100307.84
2022-10-28T15:04:27.974Z,100306.34
2022-10-28T15:06:54.505Z,100309.53
2022-10-28T15:09:31.029Z,100309.69
2022-10-28T15:12:04.814Z,100306.84
2022-10-28T15:14:48.370Z,100307.66
2022-10-28T15:17:23.403Z,100315.44
2022-10-28T15:19:52.385Z,100312.56
2022-10-28T15:22:26.549Z,100319.94
2022-10-28T15:25:13.766Z,100317.59
2022-10-28T15:27:41.693Z,100319.63
2022-10-28T15:30:20.693Z,100319.97
2022-10-28T15:32:47.030Z,100323.66
2022-10-28T15:35:32.743Z,100322.16
2022-10-28T15:38:00.669Z,100326.84
2022-10-28T15:40:32.127Z,100320.47
2022-10-28T15:43:00.188Z,100325.69
2022-10-28T15:45:28.737Z,100331.38
2022-10-28T15:47:56.142Z,100326.50
2022-10-28T15:50:27.521Z,100333.72
2022-10-28T15:53:21.184Z,100323.13
2022-10-28T15:56:07.026Z,100323.31
2022-10-28T15:58:36.186Z,100327.50
2022-10-28T16:01:02.697Z,100336.09
2022-10-28T16:03:41.127Z,100327.34
2022-10-28T16:06:33.593Z,100334.72
2022-10-28T16:09:15.414Z,100338.09
2022-10-28T16:11:45.283Z,100339.63
2022-10-28T16:14:30.647Z,100336.75
2022-10-28T16:19:39.798Z,100348.38
2022-10-28T16:22:06.566Z,100341.81
2022-10-28T16:24:33.074Z,100352.91
2022-10-28T16:27:15.034Z,100354.75
2022-10-28T16:29:41.418Z,100353.22
2022-10-28T16:32:10.943Z,100357.59
2022-10-28T21:46:24.396Z,100516.72
